Time;durP1;ratioP1;P1;durP2;ratioP2;P2;SDS_P1;SDS_P2;PMS_P1;PMS_P2;Temp;Humidity;BMP_temperature;BMP_pressure;BME280_temperature;BME280_humidity;BME280_pressure;Samples;Min_cycle;Max_cycle;Signal;HPM_P1;HPM_P2
2022/09/05 00:01:14;;;;;;;;;;;;;;;18.10;80.81;101955.97;5002873;28;19937;-75
2022/09/05 00:03:43;;;;;;;;;;;;;;;18.07;80.95;101952.63;4991722;28;19929;-74
2022/09/05 00:06:09;;;;;;;;;;;;;;;18.04;81.23;101957.16;4991924;28;19942;-75
2022/09/05 00:08:45;;;;;;;;;;;;;;;18.02;81.21;101956.38;4990773;28;19945;-74
2022/09/05 00:11:10;;;;;;;;;;;;;;;17.99;81.03;101950.34;5010675;28;19926;-75
2022/09/05 00:13:41;;;;;;;;;;;;;;;17.98;81.38;101952.16;4979018;28;19930;-75
2022/09/05 00:16:16;;;;;;;;;;;;;;;17.95;81.38;101949.69;5007852;28;20016;-74
2022/09/05 00:18:51;;;;;;;;;;;;;;;17.91;81.41;101945.44;5007590;28;19933;-74
2022/09/05 00:21:36;;;;;;;;;;;;;;;17.89;81.22;101944.69;4979237;28;19929;-74
2022/09/05 00:24:05;;;;;;;;;;;;;;;17.87;81.79;101949.28;4990721;28;19938;-74
2022/09/05 00:26:49;;;;;;;;;;;;;;;17.85;82.08;101945.81;4978496;28;19926;-74
2022/09/05 00:29:17;;;;;;;;;;;;;;;17.83;81.96;101945.91;4977821;28;20328;-74
2022/09/05 00:31:46;;;;;;;;;;;;;;;17.82;82.24;101949.53;4978481;28;19965;-74
2022/09/05 00:34:14;;;;;;;;;;;;;;;17.80;81.89;101950.59;4977556;28;19968;-75
2022/09/05 00:36:39;;;;;;;;;;;;;;;17.78;81.84;101954.19;4979459;28;19934;-75
2022/09/05 00:39:23;;;;;;;;;;;;;;;17.74;81.79;101952.66;4978004;28;20293;-75
2022/09/05 00:41:50;;;;;;;;;;;;;;;17.72;82.28;101946.53;4992022;28;19980;-75
2022/09/05 00:44:15;;;;;;;;;;;;;;;17.71;82.06;101946.63;5009534;28;20019;-75
2022/09/05 00:47:01;;;;;;;;;;;;;;;17.69;82.04;101945.88;4973708;28;20943;-75
2022/09/05 00:49:28;;;;;;;;;;;;;;;17.67;81.68;101945.94;5009900;28;20028;-75
2022/09/05 00:51:57;;;;;;;;;;;;;;;17.64;82.46;101948.78;5008680;28;20001;-75
2022/09/05 00:54:22;;;;;;;;;;;;;;;17.61;82.32;101943.63;5009050;28;19926;-75
2022/09/05 00:57:07;;;;;;;;;;;;;;;17.58;82.41;101941.09;4977659;28;19925;-75
2022/09/05 01:00:08;;;;;;;;;;;;;;;17.56;82.50;101941.22;4979457;28;19937;-75
2022/09/05 01:02:52;;;;;;;;;;;;;;;17.54;82.89;101940.41;4950010;28;19925;-75
2022/09/05 01:05:36;;;;;;;;;;;;;;;17.53;83.41;101940.53;4978292;28;19988;-75
2022/09/05 01:08:20;;;;;;;;;;;;;;;17.51;83.86;101938.81;5009290;28;19941;-75
2022/09/05 01:10:49;;;;;;;;;;;;;;;17.50;83.80;101945.09;5010057;28;20396;-75
2022/09/05 01:13:23;;;;;;;;;;;;;;;17.49;83.54;101942.53;5010063;28;19926;-75
2022/09/05 01:15:53;;;;;;;;;;;;;;;17.48;83.83;101944.31;4978227;28;19933;-75
2022/09/05 01:18:22;;;;;;;;;;;;;;;17.46;83.84;101940.88;4991075;28;19941;-75
2022/09/05 01:20:47;;;;;;;;;;;;;;;17.45;84.17;101947.19;5009994;28;19926;-75
2022/09/05 01:23:42;;;;;;;;;;;;;;;17.42;83.57;101949.19;4978068;28;19925;-74
2022/09/05 01:26:23;;;;;;;;;;;;;;;17.37;84.17;101946.75;4969522;28;19937;-75
2022/09/05 01:28:56;;;;;;;;;;;;;;;17.34;84.11;101945.09;4978052;28;21269;-75
2022/09/05 01:31:24;;;;;;;;;;;;;;;17.32;84.06;101948.84;4977055;28;19932;-74
2022/09/05 01:33:55;;;;;;;;;;;;;;;17.29;84.31;101944.53;4978340;28;20278;-75
2022/09/05 01:36:38;;;;;;;;;;;;;;;17.27;84.22;101953.59;5010306;28;20392;-75
2022/09/05 01:39:11;;;;;;;;;;;;;;;17.23;84.67;101947.53;4977327;28;19960;-75
2022/09/05 01:41:40;;;;;;;;;;;;;;;17.21;84.87;101946.78;5008635;28;20019;-75
2022/09/05 01:44:05;;;;;;;;;;;;;;;17.19;84.71;101938.81;4978567;28;19972;-75
2022/09/05 01:46:51;;;;;;;;;;;;;;;17.18;84.96;101936.22;4976095;28;21316;-75
2022/09/05 01:49:32;;;;;;;;;;;;;;;17.16;85.22;101940.81;5008026;28;20035;-75
2022/09/05 01:52:16;;;;;;;;;;;;;;;17.12;85.43;101937.44;4978477;28;20359;-75
2022/09/05 01:54:51;;;;;;;;;;;;;;;17.09;85.39;101941.16;5009165;28;19988;-74
2022/09/05 01:57:37;;;;;;;;;;;;;;;17.06;85.75;101940.47;4978248;28;19969;-74
2022/09/05 02:00:13;;;;;;;;;;;;;;;17.03;85.56;101943.28;5008907;28;20309;-75
2022/09/05 02:02:43;;;;;;;;;;;;;;;16.99;85.93;101936.38;4989240;28;21276;-75
2022/09/05 02:05:11;;;;;;;;;;;;;;;16.96;85.95;101948.94;4981103;28;20996;-74
2022/09/05 02:07:55;;;;;;;;;;;;;;;16.93;85.93;101954.47;4977387;28;19925;-75
2022/09/05 02:10:23;;;;;;;;;;;;;;;16.89;86.44;101946.72;4981088;28;19925;-75
2022/09/05 02:12:51;;;;;;;;;;;;;;;16.86;86.59;101944.19;4981247;28;20404;-74
2022/09/05 02:15:24;;;;;;;;;;;;;;;16.82;86.52;101944.38;4993373;28;19983;-75
2022/09/05 02:17:50;;;;;;;;;;;;;;;16.81;87.04;101952.47;5009250;28;20321;-74
2022/09/05 02:20:20;;;;;;;;;;;;;;;16.78;86.84;101949.97;4980825;28;20352;-75
2022/09/05 02:22:48;;;;;;;;;;;;;;;16.75;87.57;101948.31;4995700;28;19956;-75
2022/09/05 02:25:23;;;;;;;;;;;;;;;16.72;87.30;101945.81;4996293;28;19945;-74
2022/09/05 02:27:50;;;;;;;;;;;;;;;16.70;87.89;101947.72;5012457;28;19952;-74
2022/09/05 02:30:15;;;;;;;;;;;;;;;16.65;87.83;101947.09;4992006;28;19976;-74
2022/09/05 02:33:00;;;;;;;;;;;;;;;16.63;88.04;101948.97;4980810;28;20124;-75
2022/09/05 02:35:30;;;;;;;;;;;;;;;16.62;88.22;101950.78;4970887;28;19934;-74
2022/09/05 02:38:02;;;;;;;;;;;;;;;16.60;88.24;101957.19;4981407;28;19939;-74
2022/09/05 02:40:35;;;;;;;;;;;;;;;16.56;88.49;101954.66;4981085;28;20675;-75
2022/09/05 02:43:10;;;;;;;;;;;;;;;16.54;88.81;101947.66;5010542;28;19926;-75
2022/09/05 02:45:54;;;;;;;;;;;;;;;16.49;88.31;101952.38;4979080;28;19979;-75
2022/09/05 02:48:38;;;;;;;;;;;;;;;16.47;88.41;101946.25;5012923;28;19929;-74
2022/09/05 02:51:07;;;;;;;;;;;;;;;16.43;88.79;101954.47;4980535;28;20569;-74
2022/09/05 02:53:32;;;;;;;;;;;;;;;16.39;89.02;101949.31;5011041;28;19981;-74
2022/09/05 02:55:58;;;;;;;;;;;;;;;16.37;89.05;101949.44;4993624;28;20044;-75
2022/09/05 02:58:26;;;;;;;;;;;;;;;16.36;89.19;101949.50;4981359;28;19930;-75
2022/09/05 03:01:20;;;;;;;;;;;;;;;16.35;89.04;101955.81;4979968;28;20289;-75
2022/09/05 03:04:04;;;;;;;;;;;;;;;16.34;89.02;101952.25;4979175;28;20012;-75
2022/09/05 03:06:42;;;;;;;;;;;;;;;16.32;89.43;101948.81;4980944;28;20033;-74
2022/09/05 03:09:26;;;;;;;;;;;;;;;16.29;89.08;101957.00;5012137;28;19925;-74
2022/09/05 03:12:09;;;;;;;;;;;;;;;16.24;89.51;101954.53;4980590;28;19952;-74
2022/09/05 03:14:54;;;;;;;;;;;;;;;16.22;89.41;101955.56;4979362;28;20422;-75
2022/09/05 03:17:31;;;;;;;;;;;;;;;16.18;89.37;101956.69;4978601;28;19929;-75
2022/09/05 03:20:14;;;;;;;;;;;;;;;16.15;89.56;101969.25;4992809;28;20573;-75
2022/09/05 03:22:58;;;;;;;;;;;;;;;16.12;89.53;101955.19;4991353;28;19932;-74
2022/09/05 03:25:26;;;;;;;;;;;;;;;16.13;90.03;101964.94;4981421;28;21587;-75
2022/09/05 03:28:11;;;;;;;;;;;;;;;16.09;89.74;101958.88;5012464;28;20316;-74
2022/09/05 03:30:36;;;;;;;;;;;;;;;16.09;90.66;101971.34;5012319;28;20031;-74
2022/09/05 03:33:16;;;;;;;;;;;;;;;16.06;90.12;101964.38;4979634;28;19933;-75
2022/09/05 03:36:07;;;;;;;;;;;;;;;16.07;90.11;101965.25;4980993;28;19935;-74
2022/09/05 03:38:38;;;;;;;;;;;;;;;16.05;90.34;101967.97;4955500;28;19953;-75
2022/09/05 03:41:19;;;;;;;;;;;;;;;16.05;91.03;101961.75;4979016;28;19984;-74
2022/09/05 03:44:02;;;;;;;;;;;;;;;16.04;90.71;101971.59;4994214;28;20565;-74
2022/09/05 03:46:46;;;;;;;;;;;;;;;16.05;91.06;101977.78;4990834;28;21246;-75
2022/09/05 03:49:17;;;;;;;;;;;;;;;16.01;90.43;101971.75;4979778;28;20408;-75
2022/09/05 03:51:42;;;;;;;;;;;;;;;15.98;91.34;101964.78;4991726;28;20458;-74
2022/09/05 03:54:10;;;;;;;;;;;;;;;15.98;91.19;101966.56;4978448;28;19971;-75
2022/09/05 03:56:37;;;;;;;;;;;;;;;15.95;91.04;101969.41;4979497;28;19930;-75
2022/09/05 03:59:21;;;;;;;;;;;;;;;15.94;91.43;101964.97;4979158;28;19930;-75
2022/09/05 04:01:47;;;;;;;;;;;;;;;15.93;91.74;101979.28;4978386;28;19965;-75
2022/09/05 04:04:24;;;;;;;;;;;;;;;15.92;91.99;101977.56;5007501;28;20384;-75
2022/09/05 04:06:57;;;;;;;;;;;;;;;15.91;92.24;101976.66;5011094;28;20032;-75
2022/09/05 04:09:51;;;;;;;;;;;;;;;15.92;92.83;101981.09;4990380;28;19935;-75
2022/09/05 04:12:27;;;;;;;;;;;;;;;15.92;92.48;101982.91;4965958;28;20728;-75
2022/09/05 04:15:01;;;;;;;;;;;;;;;15.89;92.20;101979.41;5008315;28;19929;-75
2022/09/05 04:17:36;;;;;;;;;;;;;;;15.86;91.62;101976.88;4978764;28;20377;-75
2022/09/05 04:20:16;;;;;;;;;;;;;;;15.84;91.35;101981.44;5010207;28;19933;-75
2022/09/05 04:22:59;;;;;;;;;;;;;;;15.82;91.17;101980.66;4993524;28;19929;-75
2022/09/05 04:25:28;;;;;;;;;;;;;;;15.81;91.07;101980.72;4978450;28;19932;-75
2022/09/05 04:28:09;;;;;;;;;;;;;;;15.79;92.24;101982.63;4977325;28;19929;-75
2022/09/05 04:30:34;;;;;;;;;;;;;;;15.78;91.98;101984.41;4990547;28;19925;-74
2022/09/05 04:32:59;;;;;;;;;;;;;;;15.77;92.04;101985.38;5008972;28;20339;-75
2022/09/05 04:35:24;;;;;;;;;;;;;;;15.75;91.35;101987.25;4978705;28;20328;-74
2022/09/05 04:38:08;;;;;;;;;;;;;;;15.75;91.61;101981.91;4977007;28;19926;-74
2022/09/05 04:40:38;;;;;;;;;;;;;;;15.75;91.88;101981.91;4978224;28;19936;-75
2022/09/05 04:43:05;;;;;;;;;;;;;;;15.75;92.11;101981.91;4994194;28;19972;-75
2022/09/05 04:45:33;;;;;;;;;;;;;;;15.75;91.98;101981.91;4978325;28;19929;-74
2022/09/05 04:47:58;;;;;;;;;;;;;;;15.73;91.72;101987.31;4990361;28;19938;-75
2022/09/05 04:50:23;;;;;;;;;;;;;;;15.73;91.74;101983.78;4990110;28;20360;-75
2022/09/05 04:53:14;;;;;;;;;;;;;;;15.71;91.20;101991.88;4977539;28;19930;-75
2022/09/05 04:55:40;;;;;;;;;;;;;;;15.68;91.64;101985.81;4990863;28;19930;-75
2022/09/05 04:58:13;;;;;;;;;;;;;;;15.67;91.85;101998.28;5009731;28;20408;-75
2022/09/05 05:00:39;;;;;;;;;;;;;;;15.67;91.82;101994.75;5008045;28;20384;-74
2022/09/05 05:03:15;;;;;;;;;;;;;;;15.65;91.65;101985.97;5009189;28;19929;-75
2022/09/05 05:05:46;;;;;;;;;;;;;;;15.63;91.59;101994.03;4977575;28;19929;-75
2022/09/05 05:08:15;;;;;;;;;;;;;;;15.62;92.02;101984.31;4977690;28;19929;-75
2022/09/05 05:10:44;;;;;;;;;;;;;;;15.61;91.89;101993.25;4978625;28;19926;-74
2022/09/05 05:13:10;;;;;;;;;;;;;;;15.60;92.31;102003.06;4993035;28;21177;-75
2022/09/05 05:15:41;;;;;;;;;;;;;;;15.59;92.46;101998.66;5008080;28;19995;-74
2022/09/05 05:18:12;;;;;;;;;;;;;;;15.63;92.53;102001.19;5009401;28;19926;-74
2022/09/05 05:20:40;;;;;;;;;;;;;;;15.62;92.82;101997.66;4978391;28;20064;-75
2022/09/05 05:23:07;;;;;;;;;;;;;;;15.63;92.98;102001.19;5009927;28;20064;-74
2022/09/05 05:25:33;;;;;;;;;;;;;;;15.60;93.19;102003.06;4990650;28;21653;-75
2022/09/05 05:27:58;;;;;;;;;;;;;;;15.59;92.45;101996.00;4976863;28;20411;-75
2022/09/05 05:30:24;;;;;;;;;;;;;;;15.59;92.80;101998.66;4977309;28;19925;-75
2022/09/05 05:32:53;;;;;;;;;;;;;;;15.59;92.33;101992.47;4990146;28;19937;-74
2022/09/05 05:35:20;;;;;;;;;;;;;;;15.59;92.81;101992.47;4976169;28;19982;-75
2022/09/05 05:37:45;;;;;;;;;;;;;;;15.58;92.18;101991.59;5010298;28;19945;-74
2022/09/05 05:40:17;;;;;;;;;;;;;;;15.60;92.41;101989.69;5010916;28;19930;-75
2022/09/05 05:42:43;;;;;;;;;;;;;;;15.63;93.48;101999.38;4980427;28;20415;-75
2022/09/05 05:45:15;;;;;;;;;;;;;;;15.64;93.35;101998.47;4995441;28;19930;-74
2022/09/05 05:47:43;;;;;;;;;;;;;;;15.66;93.36;101991.22;4995400;28;19929;-74
2022/09/05 05:50:28;;;;;;;;;;;;;;;15.69;93.89;101993.72;4983267;28;20363;-74
2022/09/05 05:53:00;;;;;;;;;;;;;;;15.73;93.54;101994.44;4982792;28;19930;-74
2022/09/05 05:55:45;;;;;;;;;;;;;;;15.77;93.10;101995.16;5014264;28;19929;-74
2022/09/05 05:58:29;;;;;;;;;;;;;;;15.84;94.21;102004.59;4980402;28;19944;-74
2022/09/05 06:01:01;;;;;;;;;;;;;;;15.90;93.89;102004.28;4979875;28;19973;-75
2022/09/05 06:03:45;;;;;;;;;;;;;;;15.96;93.75;102005.84;5013021;28;19926;-74
2022/09/05 06:06:17;;;;;;;;;;;;;;;16.03;93.65;102001.94;4981014;28;19929;-74
2022/09/05 06:09:01;;;;;;;;;;;;;;;16.06;92.91;102001.75;4977662;28;20424;-75
2022/09/05 06:11:29;;;;;;;;;;;;;;;16.13;92.67;102002.34;5011528;28;19921;-75
2022/09/05 06:14:17;;;;;;;;;;;;;;;16.20;92.54;102009.09;4982323;28;19925;-75
2022/09/05 06:16:52;;;;;;;;;;;;;;;16.28;92.69;102003.34;5010338;28;20024;-75
2022/09/05 06:19:24;;;;;;;;;;;;;;;16.31;91.99;102003.19;5014100;28;19928;-75
2022/09/05 06:22:13;;;;;;;;;;;;;;;16.34;91.71;102008.38;4980278;28;19925;-75
2022/09/05 06:24:57;;;;;;;;;;;;;;;16.38;91.96;102012.63;5013980;28;20348;-74
2022/09/05 06:27:35;;;;;;;;;;;;;;;16.44;91.75;102011.44;4979238;28;20028;-75
2022/09/05 06:30:02;;;;;;;;;;;;;;;16.51;91.96;102012.00;4979674;28;20308;-77
2022/09/05 06:32:40;;;;;;;;;;;;;;;16.58;92.29;102013.41;5011960;28;19930;-78
2022/09/05 06:35:15;;;;;;;;;;;;;;;16.66;91.93;102018.31;4980972;28;19929;-78
2022/09/05 06:37:55;;;;;;;;;;;;;;;16.73;91.26;102018.88;4981605;28;19930;-77
2022/09/05 06:40:22;;;;;;;;;;;;;;;16.82;90.86;102031.75;5012619;28;19929;-78
2022/09/05 06:42:51;;;;;;;;;;;;;;;16.93;91.70;102024.00;4982068;28;19925;-77
2022/09/05 06:45:19;;;;;;;;;;;;;;;17.11;90.88;102015.97;5010211;28;20020;-77
2022/09/05 06:47:45;;;;;;;;;;;;;;;17.33;90.33;102022.81;5012571;28;19926;-77
2022/09/05 06:50:14;;;;;;;;;;;;;;;17.50;89.85;102028.06;4980291;28;20003;-77
2022/09/05 06:52:58;;;;;;;;;;;;;;;17.59;88.51;102023.19;5013239;28;20613;-77
2022/09/05 06:55:41;;;;;;;;;;;;;;;17.61;88.20;102022.13;4979167;28;20539;-79
2022/09/05 06:58:26;;;;;;;;;;;;;;;17.65;88.29;102021.00;4994642;28;19933;-79
2022/09/05 07:00:51;;;;;;;;;;;;;;;17.73;88.62;102022.38;4980116;28;19995;-79
2022/09/05 07:03:23;;;;;;;;;;;;;;;17.82;87.91;102023.66;4980277;28;20472;-80
2022/09/05 07:06:07;;;;;;;;;;;;;;;17.89;88.16;102019.69;4980013;28;20316;-79
2022/09/05 07:08:44;;;;;;;;;;;;;;;17.98;87.96;102021.81;4980884;28;19995;-74
2022/09/05 07:11:17;;;;;;;;;;;;;;;18.10;88.50;102020.28;4981658;28;19932;-74
2022/09/05 07:13:48;;;;;;;;;;;;;;;18.20;88.34;102025.97;4981126;28;20578;-74
2022/09/05 07:16:33;;;;;;;;;;;;;;;18.30;87.49;102021.75;5011676;28;20739;-74
2022/09/05 07:19:03;;;;;;;;;;;;;;;18.44;87.24;102022.75;4996236;28;19929;-74
2022/09/05 07:21:34;;;;;;;;;;;;;;;18.55;87.32;102024.78;4981068;28;20384;-74
2022/09/05 07:24:02;;;;;;;;;;;;;;;18.67;86.59;102024.03;5011616;28;19926;-73
2022/09/05 07:26:32;;;;;;;;;;;;;;;18.78;86.65;102027.91;4977836;28;20380;-80
2022/09/05 07:28:58;;;;;;;;;;;;;;;18.87;86.39;102033.53;5011377;28;19926;-83
2022/09/05 07:31:27;;;;;;;;;;;;;;;18.97;86.15;102030.28;5010683;28;19949;-83
2022/09/05 07:34:12;;;;;;;;;;;;;;;19.08;86.04;102033.19;5009295;28;20448;-84
2022/09/05 07:36:38;;;;;;;;;;;;;;;19.18;85.13;102027.25;5013506;28;19926;-84
2022/09/05 07:39:04;;;;;;;;;;;;;;;19.27;85.18;102032.88;4995245;28;19936;-85
2022/09/05 07:41:30;;;;;;;;;;;;;;;19.35;85.06;102018.94;4994785;28;19930;-84
2022/09/05 07:44:03;;;;;;;;;;;;;;;19.44;84.70;102022.03;4973515;28;19930;-84
2022/09/05 07:46:38;;;;;;;;;;;;;;;19.50;84.61;102021.63;5008829;28;19926;-84
2022/09/05 07:49:05;;;;;;;;;;;;;;;19.60;84.85;102014.69;4982542;28;19930;-85
2022/09/05 07:51:31;;;;;;;;;;;;;;;19.72;85.01;102009.47;5011003;28;19930;-84
2022/09/05 07:53:59;;;;;;;;;;;;;;;19.84;84.75;102021.22;4981999;28;19969;-84
2022/09/05 07:56:44;;;;;;;;;;;;;;;19.95;84.02;102030.31;5013506;28;19964;-85
2022/09/05 07:59:10;;;;;;;;;;;;;;;20.06;83.51;102023.38;5010435;28;20408;-83
2022/09/05 08:01:36;;;;;;;;;;;;;;;20.15;83.65;102028.13;5012551;28;20493;-82
2022/09/05 08:04:02;;;;;;;;;;;;;;;20.25;83.39;102031.03;4994413;28;19949;-83
2022/09/05 08:06:27;;;;;;;;;;;;;;;20.34;83.61;102026.88;4993151;28;19930;-83
2022/09/05 08:08:53;;;;;;;;;;;;;;;20.43;83.93;102022.69;4980850;28;19926;-84
2022/09/05 08:11:21;;;;;;;;;;;;;;;20.53;83.91;102020.22;4978614;28;19925;-86
2022/09/05 08:13:52;;;;;;;;;;;;;;;20.63;83.41;102023.97;4994438;28;19966;-84
2022/09/05 08:16:18;;;;;;;;;;;;;;;20.77;83.25;102025.72;4977243;28;20412;-84
2022/09/05 08:18:55;;;;;;;;;;;;;;;20.90;82.67;102023.03;4990808;28;19921;-83
2022/09/05 08:21:30;;;;;;;;;;;;;;;21.06;81.96;102019.25;4977029;28;20313;-82
2022/09/05 08:23:58;;;;;;;;;;;;;;;21.23;81.93;102024.28;4990365;28;20012;-83
2022/09/05 08:26:24;;;;;;;;;;;;;;;21.36;81.81;102026.94;5011337;28;19932;-86
2022/09/05 08:28:58;;;;;;;;;;;;;;;21.47;81.09;102025.28;4979650;28;19976;-84
2022/09/05 08:31:32;;;;;;;;;;;;;;;21.59;81.01;102024.38;4968667;28;19925;-82
2022/09/05 08:33:59;;;;;;;;;;;;;;;21.70;80.45;102031.72;4970201;28;19926;-84
2022/09/05 08:36:25;;;;;;;;;;;;;;;21.84;79.98;102025.25;5003099;28;20373;-88
2022/09/05 08:38:53;;;;;;;;;;;;;;;21.96;79.76;102018.13;4987313;28;19929;-91
2022/09/05 08:41:40;;;;;;;;;;;;;;;22.04;79.22;102017.50;4991875;28;19961;-89
2022/09/05 08:44:17;;;;;;;;;;;;;;;22.09;79.69;102016.19;4977584;28;20028;-88
2022/09/05 08:46:54;;;;;;;;;;;;;;;22.14;79.57;102018.53;4993024;28;19955;-88
2022/09/05 08:49:33;;;;;;;;;;;;;;;22.22;79.92;102015.28;4993445;28;20299;-86
2022/09/05 08:52:10;;;;;;;;;;;;;;;22.34;79.63;102018.84;5011113;28;19972;-82
2022/09/05 08:54:41;;;;;;;;;;;;;;;22.51;78.48;102020.25;4980195;28;20380;-84
2022/09/05 08:57:18;;;;;;;;;;;;;;;22.65;78.22;102025.44;5010301;28;19929;-83
2022/09/05 08:59:44;;;;;;;;;;;;;;;22.79;78.02;102028.88;4991176;28;19934;-83
2022/09/05 09:02:15;;;;;;;;;;;;;;;22.96;77.65;102030.22;5009274;28;20304;-82
2022/09/05 09:04:42;;;;;;;;;;;;;;;23.15;77.01;102029.59;4979616;28;19926;-83
2022/09/05 09:07:17;;;;;;;;;;;;;;;23.34;77.54;102022.75;4980079;28;19932;-83
2022/09/05 09:09:42;;;;;;;;;;;;;;;23.52;76.63;102016.81;5010993;28;19936;-81
2022/09/05 09:12:28;;;;;;;;;;;;;;;23.69;75.87;102018.97;5007336;28;19929;-83
2022/09/05 09:14:56;;;;;;;;;;;;;;;23.90;75.02;102018.16;4970583;28;19926;-80
2022/09/05 09:17:40;;;;;;;;;;;;;;;24.07;74.71;102011.34;4992739;28;20104;-81
2022/09/05 09:20:29;;;;;;;;;;;;;;;24.24;73.83;102009.06;4977634;28;19932;-80
2022/09/05 09:23:00;;;;;;;;;;;;;;;24.38;72.18;102006.00;5009812;28;19972;-80
2022/09/05 09:25:32;;;;;;;;;;;;;;;24.56;71.99;101999.97;4978920;28;19926;-81
2022/09/05 09:28:01;;;;;;;;;;;;;;;24.67;70.52;101999.88;5009192;28;20645;-82
2022/09/05 09:30:27;;;;;;;;;;;;;;;24.75;70.39;101996.53;5009536;28;19951;-79
2022/09/05 09:32:53;;;;;;;;;;;;;;;24.88;70.14;101995.47;5008679;28;20554;-88
2022/09/05 09:35:18;;;;;;;;;;;;;;;24.98;68.37;102000.88;5007824;28;19929;-84
2022/09/05 09:37:55;;;;;;;;;;;;;;;25.04;68.21;102003.03;4988939;28;19936;-86
2022/09/05 09:40:24;;;;;;;;;;;;;;;25.08;68.84;102010.78;5010509;28;19961;-86
2022/09/05 09:42:52;;;;;;;;;;;;;;;25.13;69.39;102004.09;5009438;28;19976;-87
2022/09/05 09:45:21;;;;;;;;;;;;;;;25.15;68.54;102002.09;4994246;28;20289;-86
2022/09/05 09:48:09;;;;;;;;;;;;;;;25.19;68.29;101998.09;4977303;28;19930;-86
2022/09/05 09:50:38;;;;;;;;;;;;;;;25.21;69.04;102001.53;5011518;28;19936;-88
2022/09/05 09:53:11;;;;;;;;;;;;;;;25.23;68.68;101996.84;5011071;28;19930;-86
2022/09/05 09:55:40;;;;;;;;;;;;;;;25.28;68.71;101991.00;5011832;28;20017;-86
2022/09/05 09:58:25;;;;;;;;;;;;;;;25.35;68.13;101992.16;4978741;28;20025;-87
2022/09/05 10:00:53;;;;;;;;;;;;;;;25.35;67.86;101992.16;5010857;28;20400;-86
2022/09/05 10:03:40;;;;;;;;;;;;;;;25.38;67.78;101991.88;5007823;28;19972;-79
2022/09/05 10:06:15;;;;;;;;;;;;;;;25.41;67.46;101993.44;5005415;28;19925;-86
2022/09/05 10:08:50;;;;;;;;;;;;;;;25.45;67.21;101997.59;5004757;28;20032;-85
2022/09/05 10:11:34;;;;;;;;;;;;;;;25.45;67.41;101993.00;5011647;28;20289;-84
2022/09/05 10:13:59;;;;;;;;;;;;;;;25.43;67.25;101989.59;4980927;28;19929;-85
2022/09/05 10:16:25;;;;;;;;;;;;;;;25.42;67.09;101981.59;5011792;28;20491;-85
2022/09/05 10:19:09;;;;;;;;;;;;;;;25.43;67.05;101975.22;4979998;28;19929;-84
2022/09/05 10:21:54;;;;;;;;;;;;;;;25.44;66.97;101974.22;4982755;28;20003;-87
2022/09/05 10:24:38;;;;;;;;;;;;;;;25.52;65.86;101968.97;4986070;28;19930;-84
2022/09/05 10:27:05;;;;;;;;;;;;;;;25.61;65.62;101956.41;4981263;28;19933;-85
2022/09/05 10:29:42;;;;;;;;;;;;;;;25.68;66.37;101964.81;5016522;28;21177;-86
2022/09/05 10:32:14;;;;;;;;;;;;;;;25.69;65.30;101961.97;4999721;28;20016;-85
2022/09/05 10:34:59;;;;;;;;;;;;;;;25.67;64.79;101954.97;4989084;28;20503;-85
2022/09/05 10:37:27;;;;;;;;;;;;;;;25.67;63.69;101952.28;5000356;28;19961;-87
2022/09/05 10:39:53;;;;;;;;;;;;;;;25.76;63.42;101952.28;5023080;28;19925;-86
2022/09/05 10:42:28;;;;;;;;;;;;;;;25.80;63.69;101947.41;5022078;28;19926;-86
2022/09/05 10:44:53;;;;;;;;;;;;;;;25.86;62.33;101954.97;4988838;28;19925;-87
2022/09/05 10:47:25;;;;;;;;;;;;;;;25.91;62.45;101949.09;4983247;28;19934;-88
2022/09/05 10:49:54;;;;;;;;;;;;;;;25.94;62.57;101937.13;5008229;28;19956;-86
2022/09/05 10:52:56;;;;;;;;;;;;;;;25.89;61.74;101938.41;5010220;28;19973;-93
2022/09/05 10:55:40;;;;;;;;;;;;;;;25.89;61.27;101932.97;4996773;28;19926;-88
2022/09/05 10:58:24;;;;;;;;;;;;;;;25.97;60.36;101926.84;4997689;28;19937;-88
2022/09/05 11:00:55;;;;;;;;;;;;;;;26.01;60.29;101933.69;5012913;28;19925;-88
2022/09/05 11:03:21;;;;;;;;;;;;;;;26.09;58.42;101927.50;4995571;28;20320;-87
2022/09/05 11:05:49;;;;;;;;;;;;;;;26.17;59.23;101934.94;4981912;28;20396;-87
2022/09/05 11:08:34;;;;;;;;;;;;;;;26.19;58.10;101934.78;4995295;28;20024;-88
2022/09/05 11:10:59;;;;;;;;;;;;;;;26.20;58.68;101928.34;4973662;28;19930;-89
2022/09/05 11:13:25;;;;;;;;;;;;;;;26.17;57.03;101926.78;4994021;28;19968;-87
2022/09/05 11:15:53;;;;;;;;;;;;;;;26.22;57.42;101924.53;4981636;28;19930;-90
2022/09/05 11:18:37;;;;;;;;;;;;;;;26.30;56.97;101924.63;4995351;28;19930;-91
2022/09/05 11:21:24;;;;;;;;;;;;;;;26.32;57.73;101919.06;4993425;28;20024;-89
2022/09/05 11:23:54;;;;;;;;;;;;;;;26.38;57.35;101923.91;5013602;28;19941;-90
2022/09/05 11:26:22;;;;;;;;;;;;;;;26.36;57.48;101919.63;4983815;28;19929;-89
2022/09/05 11:28:52;;;;;;;;;;;;;;;26.29;58.05;101922.06;4982932;28;19936;-89
2022/09/05 11:31:18;;;;;;;;;;;;;;;26.24;58.31;101924.34;4994392;28;20453;-90
2022/09/05 11:33:56;;;;;;;;;;;;;;;26.21;58.26;101930.94;5011819;28;20044;-86
2022/09/05 11:36:29;;;;;;;;;;;;;;;26.31;56.91;101920.09;5013035;28;19940;-90
2022/09/05 11:39:17;;;;;;;;;;;;;;;26.37;56.67;101933.03;4994880;28;19945;-89
2022/09/05 11:41:43;;;;;;;;;;;;;;;26.39;56.50;101925.63;5001997;28;21143;-90
2022/09/05 11:44:25;;;;;;;;;;;;;;;26.38;56.50;101923.03;5013740;28;19937;-88
2022/09/05 11:46:54;;;;;;;;;;;;;;;26.48;56.21;101923.88;5012908;28;19930;-88
2022/09/05 11:49:25;;;;;;;;;;;;;;;26.59;54.90;101922.81;5011868;28;20400;-89
2022/09/05 11:52:00;;;;;;;;;;;;;;;26.70;53.95;101916.34;5012389;28;19928;-88
2022/09/05 11:54:44;;;;;;;;;;;;;;;26.70;53.77;101928.03;5013541;28;19933;-89
2022/09/05 11:57:30;;;;;;;;;;;;;;;26.71;54.59;101915.31;4982076;28;19928;-87
2022/09/05 11:59:59;;;;;;;;;;;;;;;26.71;54.32;101918.03;4993434;28;19972;-87
2022/09/05 12:02:25;;;;;;;;;;;;;;;26.71;54.85;101910.72;4994292;28;19926;-86
2022/09/05 12:04:53;;;;;;;;;;;;;;;26.77;54.64;101911.13;4982583;28;20299;-88
2022/09/05 12:07:22;;;;;;;;;;;;;;;26.86;54.50;101921.13;5010322;28;20016;-90
2022/09/05 12:09:54;;;;;;;;;;;;;;;26.92;53.30;101917.81;5008012;28;19930;-89
2022/09/05 12:12:25;;;;;;;;;;;;;;;26.97;52.01;101915.47;4991372;28;19984;-76
2022/09/05 12:15:09;;;;;;;;;;;;;;;27.04;50.98;101917.59;5010855;28;19960;-76
2022/09/05 12:18:04;;;;;;;;;;;;;;;27.11;50.88;101908.69;4979707;28;19933;-76
2022/09/05 12:20:41;;;;;;;;;;;;;;;27.13;50.36;101913.09;4976681;28;20036;-76
2022/09/05 12:23:13;;;;;;;;;;;;;;;27.17;50.53;101907.19;5010986;28;20044;-76
2022/09/05 12:25:38;;;;;;;;;;;;;;;27.20;49.69;101917.78;5011152;28;20463;-76
2022/09/05 12:28:06;;;;;;;;;;;;;;;27.24;48.86;101913.72;5010078;28;19929;-76
2022/09/05 12:30:32;;;;;;;;;;;;;;;27.23;49.36;101916.63;4976650;28;19925;-84
2022/09/05 12:33:18;;;;;;;;;;;;;;;27.18;50.13;101911.63;4991348;28;19932;-76
2022/09/05 12:35:47;;;;;;;;;;;;;;;27.21;49.06;101902.31;4978543;28;19930;-76
2022/09/05 12:38:12;;;;;;;;;;;;;;;27.25;50.42;101910.00;4978741;28;19930;-76
2022/09/05 12:40:38;;;;;;;;;;;;;;;27.25;49.92;101904.56;4979524;28;19972;-77
2022/09/05 12:43:04;;;;;;;;;;;;;;;27.30;48.53;101904.13;5010332;28;19968;-76
2022/09/05 12:45:43;;;;;;;;;;;;;;;27.40;48.22;101901.31;4976120;28;20024;-78
2022/09/05 12:48:12;;;;;;;;;;;;;;;27.52;47.69;101901.91;5010608;28;19929;-75
2022/09/05 12:50:43;;;;;;;;;;;;;;;27.58;47.28;101906.78;4979728;28;19925;-75
2022/09/05 12:53:10;;;;;;;;;;;;;;;27.58;46.97;101905.91;4976073;28;20443;-85
2022/09/05 12:55:41;;;;;;;;;;;;;;;27.57;47.02;101901.47;5010809;28;20404;-87
2022/09/05 12:58:20;;;;;;;;;;;;;;;27.56;47.71;101900.56;4993797;28;20302;-88
2022/09/05 13:00:46;;;;;;;;;;;;;;;27.55;47.30;101898.88;4981437;28;19936;-85
2022/09/05 13:03:13;;;;;;;;;;;;;;;27.62;48.66;101901.88;4985835;28;19926;-87
2022/09/05 13:05:57;;;;;;;;;;;;;;;27.70;46.70;101901.94;5009734;28;19932;-76
2022/09/05 13:08:23;;;;;;;;;;;;;;;27.73;45.70;101896.16;4972911;28;20319;-76